Time;durP1;ratioP1;P1;durP2;ratioP2;P2;SDS_P1;SDS_P2;PMS_P1;PMS_P2;Temp;Humidity;BMP_temperature;BMP_pressure;BME280_temperature;BME280_humidity;BME280_pressure;Samples;Min_cycle;Max_cycle;Signal;HPM_P1;HPM_P2
2023/06/12 07:23:27;;;;;;;9.77;7.90;;;;;;;-145.79;37.23;76457.47;5320493;27;20894;-79
2023/06/12 07:26:19;;;;;;;8.93;7.72;;;;;;;-145.79;37.39;76453.22;5301764;28;20072;-80
2023/06/12 07:29:00;;;;;;;9.73;7.72;;;;;;;-145.79;37.61;76436.28;5294398;28;20475;-80
2023/06/12 07:31:31;;;;;;;9.27;7.13;;;;;;;-145.79;37.27;76427.78;5302647;28;20495;-81
2023/06/12 07:34:06;;;;;;;9.40;7.10;;;;;;;-145.79;36.92;76408.72;5302267;28;20020;-80
2023/06/12 07:36:37;;;;;;;10.02;6.82;;;;;;;-145.79;37.13;76398.13;5290953;28;20024;-80
2023/06/12 07:39:18;;;;;;;9.52;7.25;;;;;;;-145.79;37.09;76402.38;5302290;28;20032;-81
2023/06/12 07:44:40;;;;;;;11.43;7.38;;;;;;;-145.79;37.27;76381.16;5286887;22;20110;-81
2023/06/12 07:47:23;;;;;;;12.02;7.65;;;;;;;-145.79;37.01;76374.81;5278958;28;20025;-81
2023/06/12 07:50:04;;;;;;;8.93;7.55;;;;;;;-145.79;36.98;76364.22;5279720;28;20031;-80
2023/06/12 07:52:37;;;;;;;8.93;6.55;;;;;;;-145.79;36.54;76351.50;5280609;28;20025;-80
2023/06/12 07:55:09;;;;;;;8.25;6.50;;;;;;;-145.79;36.15;76349.38;5281105;28;20094;-81
2023/06/12 07:57:40;;;;;;;11.57;6.75;;;;;;;-145.79;36.29;76334.56;5279887;28;20020;-81
2023/06/12 08:00:13;;;;;;;13.32;6.70;;;;;;;-145.79;36.30;76330.31;5280881;28;20024;-79
2023/06/12 08:02:44;;;;;;;7.32;6.63;;;;;;;-145.79;36.28;76304.88;5280183;28;20020;-80
2023/06/12 08:05:17;;;;;;;9.80;6.45;;;;;;;-145.79;36.29;76300.66;5279169;28;20033;-80
2023/06/12 08:07:51;;;;;;;6.93;6.22;;;;;;;-145.79;36.18;76287.94;5279701;28;20031;-80
2023/06/12 08:10:22;;;;;;;8.48;6.45;;;;;;;-145.79;36.01;76266.75;5280031;28;20063;-80
2023/06/12 08:12:53;;;;;;;10.68;6.75;;;;;;;-145.79;35.79;76258.25;5278301;28;20468;-77
2023/06/12 08:15:27;;;;;;;7.45;6.75;;;;;;;-145.79;35.28;76245.56;5277629;28;20050;-78
2023/06/12 08:17:58;;;;;;;7.45;6.65;;;;;;;-145.79;35.16;76247.66;5288051;28;20020;-78
2023/06/12 08:20:32;;;;;;;8.57;6.53;;;;;;;-145.79;35.00;76237.06;5280892;28;20025;-78
2023/06/12 08:23:04;;;;;;;9.60;7.23;;;;;;;-145.79;34.92;76220.13;5279000;28;20020;-80
2023/06/12 08:25:36;;;;;;;10.55;7.03;;;;;;;-145.79;35.06;76205.28;5261813;28;20480;-80
2023/06/12 08:28:07;;;;;;;10.63;6.20;;;;;;;-145.79;35.25;76198.94;5279333;28;20040;-78
2023/06/12 08:30:38;;;;;;;8.90;7.40;;;;;;;-145.79;34.99;76192.56;5279644;28;20092;-80
2023/06/12 08:33:10;;;;;;;6.65;6.05;;;;;;;-145.79;35.07;76173.50;5273042;28;20495;-81
2023/06/12 08:35:43;;;;;;;6.82;6.13;;;;;;;-145.79;34.86;76162.91;5265432;28;20460;-81
2023/06/12 08:38:14;;;;;;;7.28;6.32;;;;;;;-145.79;35.03;76148.06;5265342;28;20052;-81
2023/06/12 08:40:46;;;;;;;7.13;6.32;;;;;;;-145.79;34.48;76160.78;5264954;28;20029;-82
2023/06/12 08:43:17;;;;;;;6.63;5.97;;;;;;;-145.79;34.58;76148.06;5264378;28;20061;-81
2023/06/12 08:45:51;;;;;;;15.65;7.28;;;;;;;-145.79;34.07;76150.19;5251361;28;20044;-82
2023/06/12 08:48:26;;;;;;;7.15;5.78;;;;;;;-145.79;34.45;76148.06;5253545;28;20040;-82
2023/06/12 08:51:00;;;;;;;7.22;6.43;;;;;;;-145.79;33.84;76122.66;5245460;28;20111;-81
2023/06/12 08:53:34;;;;;;;6.47;5.87;;;;;;;-145.79;33.81;76107.81;5264560;28;20025;-81
2023/06/12 08:56:07;;;;;;;6.63;5.97;;;;;;;-145.79;33.88;76097.22;5265457;28;20021;-79
2023/06/12 08:58:38;;;;;;;6.65;5.68;;;;;;;-145.79;33.77;76084.50;5264337;28;20029;-81
2023/06/12 09:01:12;;;;;;;6.60;5.68;;;;;;;-145.79;33.58;76080.28;5263748;28;20029;-81
2023/06/12 09:03:51;;;;;;;11.73;5.63;;;;;;;-145.79;33.45;76065.44;5264737;28;20047;-80
2023/06/12 09:06:23;;;;;;;8.48;5.90;;;;;;;-145.79;33.44;76059.09;5264470;28;20029;-79
2023/06/12 09:08:54;;;;;;;7.53;6.82;;;;;;;-145.79;33.45;76054.84;5263632;28;20025;-78
2023/06/12 09:11:25;;;;;;;8.07;6.13;;;;;;;-145.79;33.21;76037.88;5264237;28;20033;-79
2023/06/12 09:14:02;;;;;;;6.50;5.80;;;;;;;-145.79;33.60;76016.69;5263449;28;20423;-80
2023/06/12 09:16:51;;;;;;;6.88;6.30;;;;;;;-145.79;33.13;76020.94;5262564;28;20392;-80
2023/06/12 09:19:22;;;;;;;7.75;5.85;;;;;;;-145.79;33.01;76020.94;5263930;28;20017;-81
2023/06/12 09:21:54;;;;;;;8.90;6.35;;;;;;;-145.79;32.93;76012.47;5262946;28;20396;-80
2023/06/12 09:24:25;;;;;;;6.55;5.40;;;;;;;-145.79;33.09;75997.63;5264441;28;20033;-80
2023/06/12 09:26:56;;;;;;;6.72;6.07;;;;;;;-145.79;32.60;75982.81;5263739;28;20044;-77
2023/06/12 09:29:33;;;;;;;6.90;5.70;;;;;;;-145.79;32.38;75961.63;5263049;28;20029;-81
2023/06/12 09:32:13;;;;;;;6.15;5.60;;;;;;;-145.79;32.24;75965.84;5263833;28;20400;-81
2023/06/12 09:34:50;;;;;;;8.30;6.25;;;;;;;-145.79;32.56;75972.22;5263799;28;20029;-80
2023/06/12 09:37:22;;;;;;;8.30;6.28;;;;;;;-145.79;32.42;75959.50;5263662;28;20033;-80
2023/06/12 09:40:13;;;;;;;7.53;5.65;;;;;;;-145.79;32.19;75938.31;5263214;28;20025;-79
2023/06/12 09:42:45;;;;;;;6.25;5.43;;;;;;;-145.79;31.92;75955.25;5263164;28;20049;-81
2023/06/12 09:45:20;;;;;;;7.50;5.05;;;;;;;-145.79;32.63;75948.91;5263183;28;20475;-79
2023/06/12 09:47:55;;;;;;;6.72;6.07;;;;;;;-145.79;32.11;75931.94;5263399;28;20029;-80
2023/06/12 09:50:26;;;;;;;6.20;5.60;;;;;;;-145.79;31.67;75915.00;5263075;28;20025;-81
2023/06/12 09:52:59;;;;;;;6.18;5.57;;;;;;;-145.79;31.49;75912.88;5264037;28;20041;-81
2023/06/12 09:55:31;;;;;;;8.13;5.63;;;;;;;-145.79;31.33;75927.72;5263289;28;20079;-79
2023/06/12 09:58:05;;;;;;;6.28;5.63;;;;;;;-145.79;31.38;75919.22;5262623;28;20439;-80
2023/06/12 10:00:37;;;;;;;6.45;5.20;;;;;;;-145.79;31.33;75900.16;5256285;22;20566;-76
2023/06/12 10:03:11;;;;;;;9.32;5.97;;;;;;;-145.79;31.63;75889.56;5241828;28;20025;-76
2023/06/12 10:05:50;;;;;;;6.27;5.67;;;;;;;-145.79;31.36;75898.03;5240641;28;20083;-76
2023/06/12 10:08:21;;;;;;;6.10;5.50;;;;;;;-145.79;31.30;75910.75;5230562;28;20037;-75
2023/06/12 10:10:53;;;;;;;6.03;5.43;;;;;;;-145.79;31.35;75919.22;5225996;28;20403;-75
2023/06/12 10:13:25;;;;;;;8.05;5.75;;;;;;;-145.79;31.58;75889.56;5239029;28;20037;-76
2023/06/12 10:15:57;;;;;;;8.20;6.05;;;;;;;-145.79;31.15;75887.44;5239206;28;20033;-76
2023/06/12 10:18:30;;;;;;;6.05;5.53;;;;;;;-145.79;31.15;75881.09;5239131;28;20029;-76
2023/06/12 10:21:02;;;;;;;9.07;7.65;;;;;;;-145.79;31.10;75866.25;5241748;28;20041;-76
2023/06/12 10:23:36;;;;;;;6.90;6.20;;;;;;;-145.79;31.05;75870.50;5235222;28;20030;-76
2023/06/12 10:26:08;;;;;;;6.32;5.72;;;;;;;-145.79;30.79;75864.16;5240900;28;20056;-76
2023/06/12 10:28:39;;;;;;;7.10;5.72;;;;;;;-145.79;31.21;75872.63;5247053;28;20080;-75
2023/06/12 10:31:15;;;;;;;6.93;6.20;;;;;;;-145.79;31.12;75876.84;5241423;28;20072;-75
2023/06/12 10:34:00;;;;;;;9.55;6.03;;;;;;;-145.79;31.33;75868.38;5241930;28;20024;-69
2023/06/12 10:36:42;;;;;;;7.57;6.30;;;;;;;-145.79;31.05;75855.66;5240667;28;20116;-71
2023/06/12 10:39:22;;;;;;;6.63;5.80;;;;;;;-145.79;31.47;75842.97;5239126;28;20063;-70
2023/06/12 10:41:58;;;;;;;7.15;5.85;;;;;;;-145.79;31.04;75849.31;5241361;28;20052;-70
2023/06/12 10:44:41;;;;;;;11.15;8.27;;;;;;;-145.79;31.30;75823.88;5242199;28;20030;-70
2023/06/12 10:47:21;;;;;;;6.50;5.63;;;;;;;-145.79;31.04;75821.75;5240049;28;20108;-69
2023/06/12 10:50:05;;;;;;;7.13;6.07;;;;;;;-145.79;30.91;75800.56;5241271;28;20040;-69
2023/06/12 10:52:52;;;;;;;8.23;6.85;;;;;;;-145.79;30.90;75804.81;5240519;28;20052;-71
2023/06/12 10:55:31;;;;;;;7.07;6.47;;;;;;;-145.79;31.09;75792.09;5241410;28;20025;-69
2023/06/12 10:58:08;;;;;;;8.30;5.82;;;;;;;-145.79;30.92;75783.63;5240089;28;20017;-68
2023/06/12 11:00:45;;;;;;;7.78;6.07;;;;;;;-145.79;31.02;75779.38;5240206;28;20046;-71
2023/06/12 11:03:25;;;;;;;7.50;6.18;;;;;;;-145.79;30.67;75760.31;5241079;28;20491;-68
2023/06/12 11:06:08;;;;;;;6.82;5.85;;;;;;;-145.79;30.35;75770.91;5241132;28;20048;-66
2023/06/12 11:08:43;;;;;;;7.20;6.40;;;;;;;-145.79;30.65;75753.97;5240057;28;20022;-69
2023/06/12 11:11:15;;;;;;;7.78;6.07;;;;;;;-145.79;30.86;75741.25;5240836;28;20108;-69
2023/06/12 11:13:46;;;;;;;10.02;5.93;;;;;;;-145.79;30.84;75745.50;5240053;28;20108;-67
2023/06/12 11:16:24;;;;;;;7.25;6.55;;;;;;;-145.79;30.77;75734.91;5239670;28;20053;-68
2023/06/12 11:19:06;;;;;;;7.70;6.28;;;;;;;-145.79;30.48;75739.13;5233704;28;20033;-68
2023/06/12 11:21:38;;;;;;;6.82;6.15;;;;;;;-145.79;30.45;75715.81;5231082;28;20466;-68
2023/06/12 11:24:13;;;;;;;7.93;6.32;;;;;;;-145.79;30.37;75698.88;5235145;28;20125;-67
2023/06/12 11:26:51;;;;;;;7.28;6.30;;;;;;;-145.79;30.05;75694.63;5257326;28;20056;-68
2023/06/12 11:29:25;;;;;;;7.28;6.03;;;;;;;-145.79;30.22;75688.28;5238475;28;20032;-69
2023/06/12 11:32:01;;;;;;;9.13;6.47;;;;;;;-145.79;30.08;75684.03;5239074;28;20111;-70
2023/06/12 11:34:36;;;;;;;7.90;6.15;;;;;;;-145.79;30.00;75703.13;5241807;28;20386;-69
2023/06/12 11:37:15;;;;;;;9.10;6.95;;;;;;;-145.79;29.86;75686.16;5223378;28;20068;-69
2023/06/12 11:39:46;;;;;;;9.93;6.55;;;;;;;-145.79;30.17;75690.41;5238453;28;20057;-69
2023/06/12 11:42:17;;;;;;;7.95;7.18;;;;;;;-145.79;30.36;75667.09;5240058;28;20079;-68
2023/06/12 11:44:51;;;;;;;8.75;6.07;;;;;;;-145.79;30.32;75656.50;5240877;28;20041;-69
2023/06/12 11:47:22;;;;;;;7.78;6.95;;;;;;;-145.79;29.96;75669.22;5240198;28;20401;-69
2023/06/12 11:49:53;;;;;;;9.38;7.05;;;;;;;-145.79;30.00;75673.44;5239233;28;20025;-69
2023/06/12 11:52:25;;;;;;;13.05;11.85;;;;;;;-145.79;30.04;75656.50;5240723;28;20025;-69
2023/06/12 11:55:00;;;;;;;10.57;9.27;;;;;;;-145.79;30.09;75650.16;5240736;28;20527;-70
2023/06/12 11:57:32;;;;;;;8.20;7.28;;;;;;;-145.79;29.99;75614.13;5239269;28;20051;-69
2023/06/12 12:00:14;;;;;;;10.05;6.85;;;;;;;-145.79;29.23;75626.84;5240478;28;20071;-69
2023/06/12 12:02:51;;;;;;;7.18;6.43;;;;;;;-145.79;29.13;75605.66;5221333;28;20033;-69
2023/06/12 12:05:23;;;;;;;7.03;6.32;;;;;;;-145.79;29.12;75622.59;5221264;28;20033;-69
2023/06/12 12:08:03;;;;;;;10.05;6.75;;;;;;;-145.79;28.50;75599.31;5231743;28;20067;-69
2023/06/12 12:10:40;;;;;;;6.95;6.15;;;;;;;-145.79;28.84;75578.13;5243356;28;20389;-69
2023/06/12 12:13:12;;;;;;;6.55;5.95;;;;;;;-145.79;28.34;75569.63;5244271;28;20037;-69
2023/06/12 12:15:43;;;;;;;8.50;6.22;;;;;;;-145.79;27.94;75544.22;5244679;28;20079;-68
2023/06/12 12:18:18;;;;;;;7.25;6.43;;;;;;;-145.79;28.40;75535.75;5241862;28;20072;-68
2023/06/12 12:20:50;;;;;;;10.77;6.47;;;;;;;-145.79;28.13;75525.16;5242520;28;20021;-68
2023/06/12 12:23:23;;;;;;;6.93;5.80;;;;;;;-145.79;27.92;75533.63;5240595;28;20156;-68
2023/06/12 12:25:58;;;;;;;7.25;6.53;;;;;;;-145.79;28.06;75529.38;5223850;28;20034;-67
2023/06/12 12:28:29;;;;;;;8.32;6.80;;;;;;;-145.79;28.47;75516.66;5221818;28;20025;-68
2023/06/12 12:31:01;;;;;;;8.50;6.22;;;;;;;-145.79;28.56;75565.41;5222712;28;20084;-68
2023/06/12 12:33:32;;;;;;;6.78;6.18;;;;;;;-145.79;28.62;75584.47;5235984;28;20041;-68
2023/06/12 12:36:04;;;;;;;6.40;5.75;;;;;;;-145.79;28.41;75605.66;5230712;28;20094;-68
2023/06/12 12:38:35;;;;;;;8.80;6.07;;;;;;;-145.79;28.12;75576.00;5222204;28;20034;-69
2023/06/12 12:41:06;;;;;;;8.20;5.85;;;;;;;-145.79;28.11;75535.75;5223290;28;20496;-69
2023/06/12 12:43:38;;;;;;;6.68;5.53;;;;;;;-145.79;27.27;75527.25;5223160;28;20129;-69
2023/06/12 12:46:09;;;;;;;6.78;6.03;;;;;;;-145.79;27.97;75499.72;5222121;28;20021;-68
2023/06/12 12:48:40;;;;;;;7.00;6.15;;;;;;;-145.79;27.62;75474.28;5223174;28;20524;-69
2023/06/12 12:51:12;;;;;;;8.23;6.00;;;;;;;-145.79;27.40;75453.09;5223252;28;20032;-69
2023/06/12 12:53:43;;;;;;;7.97;5.10;;;;;;;-145.79;27.29;75453.09;5222231;28;20026;-69
2023/06/12 12:56:15;;;;;;;10.05;5.90;;;;;;;-145.79;26.91;75434.03;5223039;28;20385;-68
2023/06/12 12:58:46;;;;;;;7.50;5.75;;;;;;;-145.79;26.87;75455.22;5222747;28;20021;-69
2023/06/12 13:01:18;;;;;;;6.43;5.65;;;;;;;-145.79;26.96;75446.75;5242089;28;20112;-68
2023/06/12 13:03:53;;;;;;;6.50;5.63;;;;;;;-145.79;27.01;75419.22;5243489;28;20025;-68
2023/06/12 13:06:26;;;;;;;8.18;7.32;;;;;;;-145.79;26.42;75431.94;5242227;28;20034;-68
2023/06/12 13:08:57;;;;;;;8.45;6.78;;;;;;;-145.79;26.74;75419.22;5243096;28;20032;-68
2023/06/12 13:11:29;;;;;;;7.18;6.45;;;;;;;-145.79;26.23;75417.09;5243469;28;20030;-66
2023/06/12 13:14:00;;;;;;;7.90;5.35;;;;;;;-145.79;25.37;75391.66;5242473;28;20025;-70
2023/06/12 13:16:31;;;;;;;6.07;4.70;;;;;;;-145.79;25.41;75398.03;5242839;28;20032;-69
2023/06/12 13:19:03;;;;;;;6.45;5.82;;;;;;;-145.79;26.73;75387.44;5242651;28;20029;-68
2023/06/12 13:21:34;;;;;;;6.50;5.90;;;;;;;-145.79;26.82;75389.56;5242222;28;20100;-69
2023/06/12 13:24:06;;;;;;;7.45;5.47;;;;;;;-145.79;26.97;75385.31;5242415;28;20037;-69
2023/06/12 13:26:37;;;;;;;7.10;6.18;;;;;;;-145.79;27.18;75425.56;5242752;28;20052;-69
2023/06/12 13:29:09;;;;;;;7.97;5.97;;;;;;;-145.79;27.40;75440.41;5241676;28;20025;-68
2023/06/12 13:31:41;;;;;;;7.10;6.35;;;;;;;-145.79;27.42;75470.06;5242947;28;20104;-69
2023/06/12 13:34:12;;;;;;;7.78;6.13;;;;;;;-145.79;27.10;75448.88;5242447;28;20025;-69
2023/06/12 13:36:44;;;;;;;7.10;5.45;;;;;;;-145.79;26.47;75440.41;5242058;28;20096;-68
2023/06/12 13:39:17;;;;;;;6.00;5.45;;;;;;;-145.79;26.33;75419.22;5241734;28;20558;-69
2023/06/12 13:41:48;;;;;;;7.20;6.10;;;;;;;-145.79;26.38;75389.56;5241528;28;20481;-69
2023/06/12 13:44:20;;;;;;;9.18;7.40;;;;;;;-145.79;27.15;75336.59;5241800;28;20032;-69
2023/06/12 13:46:51;;;;;;;6.45;5.95;;;;;;;-145.79;26.70;75313.28;5242587;28;20025;-68
2023/06/12 13:49:25;;;;;;;8.32;7.00;;;;;;;-145.79;26.71;75317.53;5241518;28;20500;-69
2023/06/12 13:51:56;;;;;;;6.05;5.50;;;;;;;-145.79;26.31;75315.41;5242814;28;20033;-69
2023/06/12 13:54:27;;;;;;;6.68;6.15;;;;;;;-145.79;26.43;75355.66;5241896;28;20029;-69
2023/06/12 13:56:58;;;;;;;7.28;6.07;;;;;;;-145.79;26.65;75376.84;5241452;28;20025;-69
2023/06/12 13:59:30;;;;;;;7.28;6.10;;;;;;;-145.79;26.59;75417.09;5242324;28;20049;-72
2023/06/12 14:02:02;;;;;;;7.13;6.00;;;;;;;-145.79;27.18;75419.22;5242412;28;20033;-70
2023/06/12 14:04:34;;;;;;;6.10;5.18;;;;;;;-145.79;27.24;75453.09;5241093;28;20021;-71
2023/06/12 14:07:08;;;;;;;7.30;6.60;;;;;;;-145.79;27.52;75465.81;5242271;28;20083;-70
2023/06/12 14:09:40;;;;;;;6.05;5.43;;;;;;;-145.79;27.51;75472.19;5241146;28;20380;-70
2023/06/12 14:12:12;;;;;;;8.20;6.00;;;;;;;-145.79;27.50;75487.00;5242390;28;20025;-70
2023/06/12 14:14:46;;;;;;;10.50;6.95;;;;;;;-145.79;27.49;75487.00;5241997;28;20045;-70
2023/06/12 14:17:18;;;;;;;30.55;27.50;;;;;;;-145.79;27.43;75480.66;5240731;28;20477;-70
2023/06/12 14:19:49;;;;;;;7.18;6.50;;;;;;;-145.79;27.31;75461.59;5241735;28;20108;-70
2023/06/12 14:22:20;;;;;;;6.18;5.57;;;;;;;-145.79;27.25;75429.81;5242117;28;20018;-69
2023/06/12 14:24:52;;;;;;;6.55;5.63;;;;;;;-145.79;26.05;75412.84;5241091;28;20052;-70
2023/06/12 14:27:23;;;;;;;5.40;5.00;;;;;;;-145.79;25.91;75385.31;5241089;28;20036;-69
2023/06/12 14:29:55;;;;;;;6.40;5.90;;;;;;;-145.79;26.11;75359.91;5241424;28;20457;-71
2023/06/12 14:32:26;;;;;;;6.88;5.50;;;;;;;-145.79;25.88;75326.00;5239584;28;20076;-71
2023/06/12 14:34:57;;;;;;;7.10;5.53;;;;;;;-145.79;25.48;75319.63;5228647;28;20113;-72
2023/06/12 14:37:29;;;;;;;6.45;5.88;;;;;;;-145.79;25.31;75296.34;5237552;28;20025;-71
2023/06/12 14:40:00;;;;;;;7.50;6.82;;;;;;;-145.79;25.34;75298.47;5236921;28;20497;-72
2023/06/12 14:42:31;;;;;;;8.20;5.60;;;;;;;-145.79;25.58;75292.09;5240069;28;20034;-71
2023/06/12 14:45:03;;;;;;;6.22;5.63;;;;;;;-145.79;25.40;75249.72;5234722;28;20476;-70
2023/06/12 14:47:34;;;;;;;6.22;5.75;;;;;;;-145.79;25.26;75249.72;5244319;28;20026;-71
2023/06/12 14:50:15;;;;;;;6.88;6.18;;;;;;;-145.79;25.24;75228.53;5240246;28;20064;-70
2023/06/12 14:52:46;;;;;;;5.82;5.32;;;;;;;-145.79;25.66;75232.78;5240340;28;20366;-70
2023/06/12 14:55:17;;;;;;;7.10;6.43;;;;;;;-145.79;25.13;75234.91;5251493;28;20024;-71
2023/06/12 14:57:49;;;;;;;7.38;6.55;;;;;;;-145.79;25.21;75230.66;5242043;28;20439;-71
2023/06/12 15:00:21;;;;;;;6.05;5.55;;;;;;;-145.79;25.05;75239.13;5239105;28;20480;-71
2023/06/12 15:02:52;;;;;;;8.68;5.82;;;;;;;-145.79;26.05;75249.72;5239629;28;20032;-72
2023/06/12 15:05:23;;;;;;;6.00;5.45;;;;;;;-145.79;25.10;75277.28;5240813;28;20080;-71
2023/06/12 15:07:57;;;;;;;6.93;6.22;;;;;;;-145.79;25.26;75285.75;5239851;28;20033;-71
2023/06/12 15:10:28;;;;;;;5.60;5.10;;;;;;;-145.79;25.30;75319.63;5240910;28;20030;-71
2023/06/12 15:12:59;;;;;;;6.32;5.65;;;;;;;-145.79;25.00;75323.88;5240502;28;20048;-70
2023/06/12 15:15:31;;;;;;;5.82;5.38;;;;;;;-145.79;24.78;75326.00;5241084;28;20030;-71
2023/06/12 15:18:02;;;;;;;5.15;4.72;;;;;;;-145.79;25.53;75313.28;5240777;28;20049;-70
2023/06/12 15:20:34;;;;;;;7.88;7.13;;;;;;;-145.79;25.03;75306.94;5239882;28;20087;-69
2023/06/12 15:23:05;;;;;;;6.20;5.45;;;;;;;-145.79;25.14;75304.81;5241256;28;20045;-68
2023/06/12 15:25:37;;;;;;;6.40;5.75;;;;;;;-145.79;24.97;75283.63;5240950;28;20040;-69
2023/06/12 15:28:09;;;;;;;10.73;9.77;;;;;;;-145.79;24.97;75296.34;5239262;28;20032;-71
2023/06/12 15:30:40;;;;;;;11.20;10.30;;;;;;;-145.79;24.95;75292.09;5226102;28;20083;-71
2023/06/12 15:33:11;;;;;;;7.50;5.45;;;;;;;-145.79;25.08;75279.38;5240278;28;20156;-71
2023/06/12 15:35:44;;;;;;;6.88;6.05;;;;;;;-145.79;25.03;75273.03;5240149;28;20032;-70
2023/06/12 15:38:39;;;;;;;5.45;4.95;;;;;;;-145.79;25.04;75258.19;5240716;28;20029;-71
2023/06/12 15:41:12;;;;;;;5.23;4.77;;;;;;;-145.79;24.67;75279.38;5239956;28;20075;-71
2023/06/12 15:43:43;;;;;;;15.02;13.73;;;;;;;-145.79;25.03;75304.81;5242673;28;20029;-71
2023/06/12 15:46:14;;;;;;;6.55;5.45;;;;;;;-145.79;25.25;75306.94;5244987;28;20079;-71
2023/06/12 15:48:46;;;;;;;5.38;4.97;;;;;;;-145.79;24.94;75309.03;5243876;28;20052;-72
2023/06/12 15:51:18;;;;;;;5.15;4.65;;;;;;;-145.79;24.89;75298.47;5244680;28;20106;-71
2023/06/12 15:53:50;;;;;;;6.60;5.97;;;;;;;-145.79;25.41;75326.00;5245041;28;20029;-71
2023/06/12 15:56:21;;;;;;;5.43;4.95;;;;;;;-145.79;25.74;75338.72;5244096;28;20033;-71
2023/06/12 15:58:53;;;;;;;5.93;5.22;;;;;;;-145.79;25.33;75338.72;5240107;28;20041;-70
2023/06/12 16:01:25;;;;;;;6.03;5.43;;;;;;;-145.79;25.45;75326.00;5243442;28;20100;-69
2023/06/12 16:03:56;;;;;;;5.75;5.22;;;;;;;-145.79;25.29;75319.63;5244598;28;20029;-70
2023/06/12 16:06:27;;;;;;;6.30;5.35;;;;;;;-145.79;25.40;75313.28;5246352;28;20107;-70
2023/06/12 16:08:58;;;;;;;8.85;6.05;;;;;;;-145.79;25.40;75313.28;5251027;28;20021;-69
2023/06/12 16:11:30;;;;;;;6.47;5.88;;;;;;;-145.79;25.09;75334.47;5245551;28;20040;-68
2023/06/12 16:14:07;;;;;;;6.43;5.43;;;;;;;-145.79;25.07;75326.00;5244578;28;20017;-73
2023/06/12 16:16:38;;;;;;;5.90;5.15;;;;;;;-145.79;25.58;75326.00;5243157;28;20018;-72
2023/06/12 16:19:10;;;;;;;7.85;5.13;;;;;;;-145.79;25.30;75315.41;5244597;28;20032;-72
2023/06/12 16:21:41;;;;;;;6.32;4.95;;;;;;;-145.79;24.75;75304.81;5244025;28;20029;-73
2023/06/12 16:24:15;;;;;;;8.15;5.35;;;;;;;-145.79;24.60;75292.09;5243725;28;20040;-73
2023/06/12 16:26:47;;;;;;;5.35;4.85;;;;;;;-145.79;24.49;75279.38;5243986;28;20030;-74
2023/06/12 16:29:18;;;;;;;5.43;4.80;;;;;;;-145.79;24.75;75262.44;5235508;28;20022;-74
2023/06/12 16:31:51;;;;;;;5.53;5.00;;;;;;;-145.79;24.50;75268.78;5247803;28;20121;-74
2023/06/12 16:34:22;;;;;;;5.40;4.70;;;;;;;-145.79;24.62;75251.84;5247032;28;20057;-74
2023/06/12 16:36:54;;;;;;;5.55;4.90;;;;;;;-145.79;24.78;75253.97;5264811;28;20067;-74
2023/06/12 16:39:25;;;;;;;5.15;4.75;;;;;;;-145.79;24.75;75245.50;5249410;28;20029;-74
2023/06/12 16:41:57;;;;;;;7.32;5.40;;;;;;;-145.79;24.89;75241.25;5243761;28;20491;-75
2023/06/12 16:44:29;;;;;;;5.38;4.93;;;;;;;-145.79;24.76;75245.50;5242480;28;20021;-74
2023/06/12 16:47:02;;;;;;;4.90;4.50;;;;;;;-145.79;25.12;75251.84;5240509;28;20393;-75
2023/06/12 16:49:36;;;;;;;6.50;5.32;;;;;;;-145.79;25.79;75266.69;5242352;28;20033;-75
2023/06/12 16:52:07;;;;;;;7.85;5.90;;;;;;;-145.79;26.45;75270.91;5242790;28;20049;-75
2023/06/12 16:54:39;;;;;;;6.22;5.60;;;;;;;-145.79;26.25;75264.56;5243710;28;20026;-75
